createdAt,value
2018-09-10T00:01:24.194Z,0.70
2018-09-10T00:03:52.511Z,0.70
2018-09-10T00:06:20.857Z,0.70
2018-09-10T00:08:49.978Z,0.80
2018-09-10T00:11:19.432Z,1.17
2018-09-10T00:13:47.745Z,0.70
2018-09-10T00:16:16.090Z,0.70
2018-09-10T00:18:44.409Z,1.07
2018-09-10T00:21:12.756Z,1.17
2018-09-10T00:23:41.074Z,0.80
2018-09-10T00:26:09.424Z,0.80
2018-09-10T00:28:37.762Z,1.20
2018-09-10T00:31:06.086Z,0.90
2018-09-10T00:33:34.423Z,0.80
2018-09-10T00:36:02.773Z,0.77
2018-09-10T00:38:31.097Z,0.80
2018-09-10T00:41:00.168Z,0.80
2018-09-10T00:43:28.487Z,1.00
2018-09-10T00:45:56.846Z,1.57
2018-09-10T00:48:25.174Z,1.10
2018-09-10T00:50:53.523Z,1.13
2018-09-10T00:53:21.846Z,1.10
2018-09-10T00:55:50.173Z,0.90
2018-09-10T00:58:18.507Z,0.80
2018-09-10T01:00:46.854Z,0.80
2018-09-10T01:03:15.215Z,0.70
2018-09-10T01:05:43.565Z,1.00
2018-09-10T01:08:11.883Z,0.80
2018-09-10T01:10:40.233Z,0.80
2018-09-10T01:13:08.604Z,0.97
2018-09-10T01:15:36.953Z,1.00
2018-09-10T01:18:05.262Z,1.00
2018-09-10T01:20:33.598Z,0.70
2018-09-10T01:23:01.930Z,0.90
2018-09-10T01:25:30.285Z,1.10
2018-09-10T01:27:58.661Z,1.13
2018-09-10T01:30:26.990Z,0.80
2018-09-10T01:32:55.329Z,0.63
2018-09-10T01:35:23.644Z,0.97
2018-09-10T01:37:51.970Z,0.80
2018-09-10T01:40:20.324Z,0.83
2018-09-10T01:42:48.658Z,0.77
2018-09-10T01:45:16.966Z,0.70
2018-09-10T01:47:45.293Z,1.33
2018-09-10T01:50:13.706Z,0.90
2018-09-10T01:52:42.053Z,1.00
2018-09-10T01:55:10.365Z,0.90
2018-09-10T01:57:38.697Z,1.00
2018-09-10T02:00:07.075Z,1.20
2018-09-10T02:02:35.416Z,2.40
2018-09-10T02:05:03.741Z,1.10
2018-09-10T02:07:32.083Z,1.13
2018-09-10T02:10:00.807Z,1.37
2018-09-10T02:12:29.146Z,1.20
2018-09-10T02:14:57.462Z,1.00
2018-09-10T02:17:26.127Z,1.40
2018-09-10T02:19:54.702Z,1.10
2018-09-10T02:22:23.033Z,1.10
2018-09-10T02:24:51.536Z,1.80
2018-09-10T02:27:19.896Z,1.30
2018-09-10T02:29:48.287Z,1.37
2018-09-10T02:32:16.646Z,1.20
2018-09-10T02:34:44.966Z,1.43
2018-09-10T02:37:13.320Z,0.93
2018-09-10T02:39:41.630Z,1.33
2018-09-10T02:42:09.954Z,1.20
2018-09-10T02:44:38.262Z,1.10
2018-09-10T02:47:06.593Z,1.00
2018-09-10T02:49:34.915Z,1.57
2018-09-10T02:52:03.304Z,0.80
2018-09-10T02:54:31.658Z,1.10
2018-09-10T02:57:00.110Z,2.37
2018-09-10T02:59:28.430Z,1.20
2018-09-10T03:01:59.794Z,1.60
2018-09-10T03:04:28.131Z,1.50
2018-09-10T03:06:56.482Z,1.30
2018-09-10T03:09:24.820Z,1.20
2018-09-10T03:11:53.159Z,0.93
2018-09-10T03:14:21.474Z,1.20
2018-09-10T03:16:49.819Z,1.10
2018-09-10T03:19:18.172Z,1.10
2018-09-10T03:21:46.509Z,1.20
2018-09-10T03:24:14.912Z,1.00
2018-09-10T03:26:43.210Z,1.13
2018-09-10T03:29:11.513Z,1.20
2018-09-10T03:31:39.854Z,1.43
2018-09-10T03:34:08.160Z,1.67
2018-09-10T03:36:36.501Z,1.20
2018-09-10T03:39:06.481Z,1.73
2018-09-10T03:41:34.813Z,1.20
2018-09-10T03:44:03.126Z,1.00
2018-09-10T03:46:31.534Z,0.90
2018-09-10T03:48:59.850Z,1.07
2018-09-10T03:51:28.203Z,1.20
2018-09-10T03:53:56.547Z,1.30
2018-09-10T03:56:24.866Z,1.23
2018-09-10T03:58:53.477Z,1.30
2018-09-10T04:01:21.790Z,1.20
2018-09-10T04:03:50.126Z,1.20
2018-09-10T04:06:18.446Z,1.40
2018-09-10T04:08:46.807Z,0.97
2018-09-10T04:11:15.128Z,1.10
2018-09-10T04:13:43.469Z,1.10
2018-09-10T04:16:11.810Z,1.20
2018-09-10T04:18:40.159Z,2.13
2018-09-10T04:21:08.486Z,1.20
2018-09-10T04:23:36.871Z,1.67
2018-09-10T04:26:05.340Z,1.30
2018-09-10T04:28:33.610Z,1.30
2018-09-10T04:31:01.917Z,1.20
2018-09-10T04:33:30.270Z,1.70
2018-09-10T04:35:58.646Z,1.20
2018-09-10T04:38:26.958Z,1.30
2018-09-10T04:40:55.269Z,1.40
2018-09-10T04:43:23.611Z,1.30
2018-09-10T04:45:51.950Z,1.50
2018-09-10T04:48:20.609Z,1.20
2018-09-10T04:50:48.969Z,1.40
2018-09-10T04:53:17.318Z,1.23
2018-09-10T04:55:45.637Z,1.30
2018-09-10T04:58:14.047Z,1.67
2018-09-10T05:00:42.314Z,1.47
2018-09-10T05:03:10.643Z,1.47
2018-09-10T05:05:38.989Z,1.53
2018-09-10T05:08:07.330Z,1.43
2018-09-10T05:10:35.684Z,1.20
2018-09-10T05:13:04.009Z,2.23
2018-09-10T05:15:32.327Z,1.60
2018-09-10T05:18:00.662Z,1.27
2018-09-10T05:20:28.985Z,1.37
2018-09-10T05:22:57.314Z,1.30
2018-09-10T05:25:25.642Z,0.93
2018-09-10T05:27:54.064Z,0.93
2018-09-10T05:30:22.366Z,1.67
2018-09-10T05:32:50.697Z,1.03
2018-09-10T05:35:19.015Z,1.30
2018-09-10T05:37:47.346Z,1.00
2018-09-10T05:40:15.658Z,1.40
2018-09-10T05:42:44.025Z,1.67
2018-09-10T05:45:13.080Z,1.30
2018-09-10T05:47:41.812Z,1.43
2018-09-10T05:50:11.047Z,1.40
2018-09-10T05:52:39.551Z,1.30
2018-09-10T05:55:07.933Z,1.73
2018-09-10T05:57:36.279Z,1.40
2018-09-10T06:00:05.050Z,1.87
2018-09-10T06:02:39.954Z,1.50
2018-09-10T06:05:08.267Z,1.50
2018-09-10T06:07:36.606Z,1.30
2018-09-10T06:10:05.078Z,1.30
2018-09-10T06:12:33.394Z,1.10
2018-09-10T06:15:01.771Z,1.63
2018-09-10T06:17:30.117Z,1.30
2018-09-10T06:19:58.450Z,1.10
2018-09-10T06:22:26.758Z,1.40
2018-09-10T06:24:55.090Z,1.43
2018-09-10T06:27:23.402Z,2.67
2018-09-10T06:29:51.741Z,2.03
2018-09-10T06:32:20.046Z,2.80
2018-09-10T06:34:48.410Z,3.53
2018-09-10T06:37:16.781Z,3.83
2018-09-10T06:39:45.094Z,5.30
2018-09-10T06:42:13.409Z,3.50
2018-09-10T06:44:41.742Z,3.80
2018-09-10T06:47:10.048Z,4.40
2018-09-10T06:49:42.821Z,4.93
2018-09-10T06:52:11.135Z,3.87
2018-09-10T06:54:39.476Z,5.23
2018-09-10T06:57:07.804Z,4.00
2018-09-10T06:59:36.142Z,4.20
2018-09-10T07:02:04.504Z,3.90
2018-09-10T07:04:32.838Z,4.37
2018-09-10T07:07:01.159Z,3.53
2018-09-10T07:09:29.522Z,4.70
2018-09-10T07:11:57.831Z,3.60
2018-09-10T07:14:26.207Z,3.10
2018-09-10T07:17:01.246Z,2.57
2018-09-10T07:19:29.589Z,2.30
2018-09-10T07:21:57.898Z,1.90
2018-09-10T07:24:26.247Z,2.10
2018-09-10T07:26:54.578Z,7.33
2018-09-10T07:29:22.910Z,8.53
2018-09-10T07:31:51.219Z,2.57
2018-09-10T07:34:19.609Z,3.07
2018-09-10T07:36:47.922Z,1.60
2018-09-10T07:39:16.247Z,3.43
2018-09-10T07:41:44.567Z,1.30
2018-09-10T07:44:12.961Z,1.57
2018-09-10T07:46:42.125Z,2.40
2018-09-10T07:49:10.449Z,5.07
2018-09-10T07:51:38.779Z,2.70
2018-09-10T07:54:07.404Z,3.67
2018-09-10T07:56:35.743Z,3.10
2018-09-10T07:59:04.095Z,3.13
2018-09-10T08:01:32.441Z,2.73
2018-09-10T08:04:00.812Z,2.40
2018-09-10T08:06:29.121Z,2.37
2018-09-10T08:08:57.511Z,1.77
2018-09-10T08:11:25.869Z,2.07
2018-09-10T08:13:54.230Z,1.40
2018-09-10T08:16:22.552Z,1.70
2018-09-10T08:18:50.911Z,4.07
2018-09-10T08:21:19.225Z,5.40
2018-09-10T08:23:47.566Z,2.40
2018-09-10T08:26:15.894Z,2.60
2018-09-10T08:28:44.269Z,2.57
2018-09-10T08:31:12.590Z,2.60
2018-09-10T08:33:40.918Z,3.73
2018-09-10T08:36:09.297Z,3.37
2018-09-10T08:38:37.614Z,3.00
2018-09-10T08:41:05.958Z,3.73
2018-09-10T08:43:34.282Z,3.63
2018-09-10T08:46:02.624Z,4.27
2018-09-10T08:48:30.959Z,5.10
2018-09-10T08:50:59.295Z,2.70
2018-09-10T08:53:27.626Z,2.33
2018-09-10T08:55:56.105Z,2.00
2018-09-10T08:58:24.330Z,1.77
2018-09-10T09:00:52.648Z,2.87
2018-09-10T09:03:20.959Z,2.33
2018-09-10T09:05:49.349Z,2.53
2018-09-10T09:08:17.726Z,1.20
2018-09-10T09:10:46.074Z,1.30
2018-09-10T09:13:14.396Z,3.47
2018-09-10T09:15:42.727Z,1.57
2018-09-10T09:18:11.073Z,4.23
2018-09-10T09:20:39.398Z,4.37
2018-09-10T09:23:07.786Z,2.00
2018-09-10T09:25:36.091Z,2.07
2018-09-10T09:28:04.414Z,3.43
2018-09-10T09:30:32.761Z,1.90
2018-09-10T09:33:01.107Z,1.10
2018-09-10T09:35:34.874Z,1.23
2018-09-10T09:38:08.617Z,1.97
2018-09-10T09:40:42.270Z,3.63
2018-09-10T09:43:16.001Z,1.23
2018-09-10T09:45:49.837Z,3.33
2018-09-10T09:50:52.823Z,1.60
2018-09-10T09:53:21.128Z,2.00
2018-09-10T09:55:49.462Z,1.60
2018-09-10T09:58:17.786Z,2.77
2018-09-10T10:00:53.426Z,1.57
2018-09-10T10:03:52.675Z,2.83
2018-09-10T10:06:21.231Z,1.20
2018-09-10T10:08:49.571Z,2.43
2018-09-10T10:11:18.050Z,1.50
2018-09-10T10:13:46.311Z,1.57
2018-09-10T10:16:14.686Z,2.37
2018-09-10T10:18:43.027Z,1.77
2018-09-10T10:21:11.410Z,2.07
2018-09-10T10:23:39.730Z,0.90
2018-09-10T10:26:08.074Z,2.10
2018-09-10T10:28:36.382Z,2.60
2018-09-10T10:31:04.728Z,1.30
2018-09-10T10:33:33.083Z,1.30
2018-09-10T10:36:01.463Z,1.40
2018-09-10T10:38:29.798Z,1.13
2018-09-10T10:40:58.155Z,1.43
2018-09-10T10:43:26.511Z,2.47
2018-09-10T10:45:54.849Z,1.93
2018-09-10T10:48:23.165Z,1.37
2018-09-10T10:50:51.507Z,0.83
2018-09-10T10:53:19.881Z,1.10
2018-09-10T10:55:48.336Z,0.73
2018-09-10T10:58:16.652Z,0.90
2018-09-10T11:00:44.998Z,1.20
2018-09-10T11:03:13.334Z,1.20
2018-09-10T11:05:41.674Z,1.67
2018-09-10T11:08:09.994Z,0.80
2018-09-10T11:10:38.390Z,1.33
2018-09-10T11:13:06.746Z,1.63
2018-09-10T11:15:35.256Z,0.90
2018-09-10T11:18:03.561Z,1.10
2018-09-10T11:20:32.036Z,2.23
2018-09-10T11:23:00.384Z,1.40
2018-09-10T11:25:35.077Z,1.13
2018-09-10T11:28:03.389Z,1.23
2018-09-10T11:30:31.762Z,1.83
2018-09-10T11:33:00.138Z,2.00
2018-09-10T11:35:28.539Z,1.13
2018-09-10T11:37:56.907Z,1.00
2018-09-10T11:40:25.278Z,1.00
2018-09-10T11:42:53.602Z,1.10
2018-09-10T11:45:21.958Z,1.20
2018-09-10T11:47:50.279Z,2.40
2018-09-10T11:50:18.602Z,0.80
2018-09-10T11:52:46.930Z,2.00
2018-09-10T11:55:15.259Z,7.37
2018-09-10T11:57:43.595Z,1.50
2018-09-10T12:00:11.913Z,1.27
2018-09-10T12:02:40.241Z,0.93
2018-09-10T12:05:08.561Z,1.63
2018-09-10T12:07:36.906Z,2.07
2018-09-10T12:10:05.458Z,1.40
2018-09-10T12:12:33.806Z,3.37
2018-09-10T12:15:02.124Z,1.97
2018-09-10T12:17:30.463Z,2.17
2018-09-10T12:19:58.789Z,1.30
2018-09-10T12:22:27.160Z,1.73
2018-09-10T12:24:55.479Z,2.37
2018-09-10T12:27:23.833Z,6.90
2018-09-10T12:29:52.153Z,2.20
2018-09-10T12:32:20.530Z,1.10
2018-09-10T12:34:48.838Z,1.40
2018-09-10T12:37:17.193Z,1.10
2018-09-10T12:39:45.648Z,1.00
2018-09-10T12:42:19.241Z,1.50
2018-09-10T12:44:47.551Z,1.63
2018-09-10T12:47:15.882Z,1.20
2018-09-10T12:49:44.219Z,1.07
2018-09-10T12:52:12.655Z,2.37
2018-09-10T12:54:40.982Z,1.30
2018-09-10T12:57:09.318Z,1.70
2018-09-10T12:59:37.658Z,1.10
2018-09-10T13:02:05.998Z,1.53
2018-09-10T13:04:34.302Z,0.83
2018-09-10T13:07:02.643Z,1.33
2018-09-10T13:09:31.070Z,1.27
2018-09-10T13:11:59.357Z,1.03
2018-09-10T13:14:27.656Z,1.30
2018-09-10T13:19:30.547Z,0.90
2018-09-10T13:21:58.883Z,0.70
2018-09-10T13:24:27.232Z,0.73
2018-09-10T13:26:56.067Z,0.80
2018-09-10T13:29:24.386Z,0.53
2018-09-10T13:31:52.731Z,0.77
2018-09-10T13:34:21.058Z,0.60
2018-09-10T13:36:49.498Z,0.70
2018-09-10T13:39:17.823Z,1.30
2018-09-10T13:41:46.153Z,0.83
2018-09-10T13:44:14.606Z,1.00
2018-09-10T13:46:42.929Z,0.80
2018-09-10T13:49:11.246Z,1.23
2018-09-10T13:51:39.591Z,1.20
2018-09-10T13:54:07.970Z,1.57
2018-09-10T13:56:36.285Z,0.80
2018-09-10T13:59:04.603Z,2.60
2018-09-10T14:01:32.946Z,1.33
2018-09-10T14:04:01.269Z,1.27
2018-09-10T14:06:29.610Z,1.10
2018-09-10T14:08:57.961Z,0.80
2018-09-10T14:11:26.291Z,3.10
2018-09-10T14:13:54.640Z,1.10
2018-09-10T14:16:22.978Z,1.53
2018-09-10T14:18:51.382Z,1.77
2018-09-10T14:21:19.739Z,2.03
2018-09-10T14:23:49.161Z,3.73
2018-09-10T14:26:17.509Z,1.70
2018-09-10T14:28:45.857Z,2.20
2018-09-10T14:31:14.184Z,2.47
2018-09-10T14:33:42.540Z,2.23
2018-09-10T14:36:10.854Z,2.50
2018-09-10T14:38:45.726Z,1.30
2018-09-10T14:41:14.044Z,1.27
2018-09-10T14:43:42.393Z,1.40
2018-09-10T14:46:10.921Z,1.37
2018-09-10T14:48:39.274Z,1.10
2018-09-10T14:51:07.587Z,1.50
2018-09-10T14:53:35.918Z,1.10
2018-09-10T14:56:04.241Z,1.87
2018-09-10T14:58:32.618Z,1.17
2018-09-10T15:01:00.933Z,1.23
2018-09-10T15:03:29.277Z,1.20
2018-09-10T15:05:57.687Z,1.80
2018-09-10T15:08:25.965Z,1.00
2018-09-10T15:10:54.297Z,1.33
2018-09-10T15:13:22.723Z,1.27
2018-09-10T15:15:51.060Z,1.33
2018-09-10T15:18:19.408Z,1.10
2018-09-10T15:20:47.735Z,0.70
2018-09-10T15:23:16.095Z,0.80
2018-09-10T15:25:44.414Z,0.70
2018-09-10T15:28:12.742Z,1.27
2018-09-10T15:30:41.054Z,0.90
2018-09-10T15:33:09.398Z,0.90
2018-09-10T15:35:37.717Z,1.10
2018-09-10T15:38:06.086Z,0.80
2018-09-10T15:40:34.429Z,1.90
2018-09-10T15:43:09.324Z,1.10
2018-09-10T15:45:37.647Z,1.13
2018-09-10T15:48:05.979Z,1.27
2018-09-10T15:50:34.303Z,2.13
2018-09-10T15:53:02.662Z,1.40
2018-09-10T15:55:30.990Z,1.30
2018-09-10T15:57:59.657Z,0.93
2018-09-10T16:00:27.981Z,1.20
2018-09-10T16:02:56.313Z,0.90
2018-09-10T16:07:59.222Z,0.90
2018-09-10T16:10:27.587Z,0.97
2018-09-10T16:12:55.947Z,0.70
2018-09-10T16:15:24.322Z,0.80
2018-09-10T16:17:52.661Z,0.83
2018-09-10T16:20:20.969Z,0.80
2018-09-10T16:22:49.302Z,0.80
2018-09-10T16:25:17.628Z,0.60
2018-09-10T16:27:45.971Z,0.73
2018-09-10T16:30:14.309Z,0.97
2018-09-10T16:32:42.629Z,0.70
2018-09-10T16:35:10.936Z,0.87
2018-09-10T16:37:39.275Z,0.60
2018-09-10T16:40:07.626Z,0.87
2018-09-10T16:42:35.937Z,0.70
2018-09-10T16:45:04.270Z,1.00
2018-09-10T16:47:33.650Z,0.50
2018-09-10T16:50:01.981Z,0.90
2018-09-10T16:52:30.305Z,1.10
2018-09-10T16:54:58.665Z,1.00
2018-09-10T16:57:27.005Z,0.83
2018-09-10T16:59:55.399Z,0.83
2018-09-10T17:02:23.719Z,0.70
2018-09-10T17:04:52.047Z,0.70
2018-09-10T17:07:20.367Z,0.80
2018-09-10T17:09:48.733Z,0.83
2018-09-10T17:12:17.073Z,0.63
2018-09-10T17:14:45.458Z,0.70
2018-09-10T17:17:13.782Z,0.77
2018-09-10T17:19:42.123Z,0.67
2018-09-10T17:22:10.453Z,0.73
2018-09-10T17:24:38.798Z,0.80
2018-09-10T17:27:07.131Z,0.63
2018-09-10T17:29:35.469Z,1.90
2018-09-10T17:32:03.852Z,0.80
2018-09-10T17:34:32.191Z,0.97
2018-09-10T17:37:00.509Z,0.60
2018-09-10T17:39:28.861Z,0.77
2018-09-10T17:41:57.183Z,0.80
2018-09-10T17:44:25.520Z,0.90
2018-09-10T17:46:53.852Z,1.13
2018-09-10T17:49:22.182Z,0.80
2018-09-10T17:51:50.595Z,0.70
2018-09-10T17:54:18.942Z,0.60
2018-09-10T17:56:47.275Z,1.00
2018-09-10T17:59:15.619Z,1.43
2018-09-10T18:01:43.935Z,0.97
2018-09-10T18:04:12.265Z,1.07
2018-09-10T18:06:40.575Z,0.87
2018-09-10T18:09:10.470Z,1.03
2018-09-10T18:11:38.862Z,0.50
2018-09-10T18:14:07.272Z,0.60
2018-09-10T18:16:35.582Z,0.70
2018-09-10T18:19:03.911Z,0.60
2018-09-10T18:21:33.282Z,0.70
2018-09-10T18:24:01.620Z,1.00
2018-09-10T18:26:29.942Z,0.73
2018-09-10T18:28:58.450Z,0.67
2018-09-10T18:31:26.770Z,0.90
2018-09-10T18:33:55.104Z,1.03
2018-09-10T18:36:23.414Z,0.67
2018-09-10T18:38:51.907Z,0.80
2018-09-10T18:41:20.617Z,0.90
2018-09-10T18:43:48.947Z,0.70
2018-09-10T18:46:17.258Z,0.67
2018-09-10T18:48:45.637Z,1.03
2018-09-10T18:51:13.956Z,0.70
2018-09-10T18:53:42.289Z,1.63
2018-09-10T18:56:10.618Z,1.07
2018-09-10T18:58:38.947Z,0.90
2018-09-10T19:01:07.457Z,0.80
2018-09-10T19:03:35.636Z,1.03
2018-09-10T19:06:03.979Z,0.83
2018-09-10T19:08:32.287Z,0.70
2018-09-10T19:11:00.640Z,0.90
2018-09-10T19:13:28.969Z,0.70
2018-09-10T19:15:57.338Z,0.60
2018-09-10T19:18:31.015Z,1.10
2018-09-10T19:20:59.359Z,1.00
2018-09-10T19:23:27.702Z,1.27
2018-09-10T19:25:56.043Z,1.17
2018-09-10T19:28:24.350Z,1.63
2018-09-10T19:30:52.689Z,1.10
2018-09-10T19:33:21.004Z,1.80
2018-09-10T19:35:49.437Z,0.80
2018-09-10T19:38:17.746Z,0.63
2018-09-10T19:40:52.730Z,0.60
2018-09-10T19:43:21.051Z,0.80
2018-09-10T19:45:49.386Z,0.80
2018-09-10T19:48:17.693Z,1.27
2018-09-10T19:50:46.081Z,1.00
2018-09-10T19:53:14.370Z,0.90
2018-09-10T19:55:43.105Z,0.80
2018-09-10T19:58:11.420Z,0.57
2018-09-10T20:00:39.750Z,0.50
2018-09-10T20:03:08.078Z,0.63
2018-09-10T20:05:36.422Z,0.80
2018-09-10T20:08:04.759Z,0.50
2018-09-10T20:10:33.118Z,0.60
2018-09-10T20:13:01.426Z,0.60
2018-09-10T20:15:29.770Z,0.67
2018-09-10T20:17:58.094Z,0.80
2018-09-10T20:20:26.791Z,0.80
2018-09-10T20:22:55.099Z,0.70
2018-09-10T20:25:23.421Z,0.80
2018-09-10T20:27:51.730Z,0.80
2018-09-10T20:30:20.054Z,0.60
2018-09-10T20:32:48.495Z,0.67
2018-09-10T20:35:16.834Z,0.70
2018-09-10T20:37:45.155Z,0.60
2018-09-10T20:40:13.491Z,0.60
2018-09-10T20:42:41.799Z,0.80
2018-09-10T20:45:10.190Z,0.70
2018-09-10T20:47:38.489Z,0.70
2018-09-10T20:50:06.882Z,0.80
2018-09-10T20:52:35.194Z,0.70
2018-09-10T20:55:03.527Z,0.70
2018-09-10T20:57:31.945Z,0.70
2018-09-10T21:00:00.274Z,0.70
2018-09-10T21:02:28.591Z,0.97
2018-09-10T21:04:56.940Z,1.10
2018-09-10T21:07:25.346Z,0.77
2018-09-10T21:09:53.895Z,0.90
2018-09-10T21:12:22.260Z,1.17
2018-09-10T21:14:50.590Z,0.77
2018-09-10T21:17:18.909Z,1.10
2018-09-10T21:19:47.226Z,0.70
2018-09-10T21:22:15.565Z,1.07
2018-09-10T21:24:43.885Z,1.03
2018-09-10T21:27:12.214Z,0.50
2018-09-10T21:29:40.530Z,0.60
2018-09-10T21:32:08.876Z,0.80
2018-09-10T21:34:37.205Z,0.60
2018-09-10T21:37:05.917Z,0.70
2018-09-10T21:39:34.241Z,0.90
2018-09-10T21:42:09.366Z,0.80
2018-09-10T21:44:37.691Z,1.63
2018-09-10T21:47:06.123Z,1.33
2018-09-10T21:49:34.452Z,1.07
2018-09-10T21:52:02.777Z,0.70
2018-09-10T21:54:31.089Z,0.80
2018-09-10T21:56:59.432Z,1.00
2018-09-10T21:59:27.990Z,1.10
2018-09-10T22:01:57.095Z,0.80
2018-09-10T22:04:25.407Z,1.30
2018-09-10T22:06:53.777Z,0.60
2018-09-10T22:09:22.121Z,1.07
2018-09-10T22:11:55.807Z,1.20
2018-09-10T22:14:24.310Z,1.10
2018-09-10T22:16:52.644Z,0.63
2018-09-10T22:19:20.972Z,0.70
2018-09-10T22:21:49.319Z,0.97
2018-09-10T22:24:17.818Z,0.97
2018-09-10T22:26:46.194Z,0.97
2018-09-10T22:29:14.733Z,0.60
2018-09-10T22:31:43.117Z,0.90
2018-09-10T22:34:11.428Z,0.63
2018-09-10T22:36:39.758Z,0.63
2018-09-10T22:39:11.453Z,0.67
2018-09-10T22:41:39.866Z,1.00
2018-09-10T22:44:08.340Z,0.70
2018-09-10T22:46:36.777Z,0.80
2018-09-10T22:49:05.789Z,0.60
2018-09-10T22:51:34.124Z,0.50
2018-09-10T22:54:02.447Z,0.60
2018-09-10T22:56:30.778Z,0.60
2018-09-10T22:59:05.808Z,0.67
2018-09-10T23:01:34.148Z,0.70
2018-09-10T23:04:02.466Z,1.53
2018-09-10T23:06:30.801Z,0.50
2018-09-10T23:08:59.123Z,0.50
2018-09-10T23:11:27.486Z,0.67
2018-09-10T23:13:55.794Z,0.63
2018-09-10T23:16:24.137Z,0.60
2018-09-10T23:18:52.466Z,0.70
2018-09-10T23:21:20.791Z,0.57
2018-09-10T23:23:49.102Z,0.90
2018-09-10T23:26:17.439Z,0.87
2018-09-10T23:28:45.741Z,0.80
2018-09-10T23:31:14.070Z,0.60
2018-09-10T23:33:42.380Z,0.53
2018-09-10T23:36:10.728Z,1.70
2018-09-10T23:38:39.045Z,0.60
2018-09-10T23:41:07.390Z,0.60
2018-09-10T23:43:35.722Z,0.60
2018-09-10T23:46:04.077Z,0.80
2018-09-10T23:48:32.391Z,0.70
2018-09-10T23:51:00.747Z,0.70
2018-09-10T23:53:29.062Z,0.60
2018-09-10T23:55:57.374Z,0.60
2018-09-10T23:58:25.709Z,0.53
